Nearby METAR Reports

 

KISM - Kissimmee/Orland, Florida, USA
Distance from station: NW 19mi, 31km
Updated: 08/21/2018 10:56pm
Partly cloudy
Partly cloudy
 Wind from calm
Wind: Calm
Temperature: 75°F , 24°C
Dew Point: 73°F , 23°C
Humidity: 94%
Barometer: 30.12 inHg , 1020 hPa
Clouds: Partly cloudy
Visibility: 10 miles , 16 km
Cloud details: Partly cloudy 8500 ft
2018/08/22 02:56 KISM 220256Z AUTO 00000KT 10SM SCT085 24/23 A3012 RMK AO2 RAE42 SLP201 P0002 60014 T02440233 50005
KMCO - Orlando, Florida, USA
Distance from station: NNW 23mi, 37km
Updated: 08/21/2018 10:53pm
Overcast
Overcast
 Wind from ENE
Wind: ENE 6 mph , 9 km/h
Temperature: 77°F , 25°C
Dew Point: 75°F , 24°C
Humidity: 94%
Barometer: 30.11 inHg , 1019.6 hPa
Clouds: Overcast
Visibility: 10 miles , 16 km
Cloud details: Few Clouds 5500 ft
Partly cloudy 7000 ft
Mostly cloudy 11000 ft
Overcast 25000 ft
2018/08/22 02:53 KMCO 220253Z 07005KT 10SM FEW055 SCT070 BKN110 OVC250 25/24 A3011 RMK AO2 RAE42 SLP195 P0003 60009 T02500244 50001
 
KORL - Orlando, Florida, USA
Distance from station: NNW 32mi, 51km
Updated: 08/21/2018 10:53pm
Clear
Clear
 Wind from SE
Wind: SE 6 mph , 9 km/h
Temperature: 75°F , 24°C
Dew Point: 73°F , 23°C
Humidity: 94%
Barometer: 30.10 inHg , 1019.3 hPa
Clouds: Clear
Visibility: 10 miles , 16 km
2018/08/22 02:53 KORL 220253Z 13005KT 10SM CLR 24/23 A3010 RMK AO2 RAE36 SLP196 P0001 60061 T02440233 58003
KMLB - Melbourne, Florida, USA
Distance from station: E 32mi, 52km
Updated: 08/21/2018 10:53pm
Clear
Clear
 Wind from calm
Wind: Calm
Temperature: 81°F , 27°C
Heat Index: 86°F , 30°C
Dew Point: 73°F , 23°C
Humidity: 79%
Barometer: 30.10 inHg , 1019.3 hPa
Clouds: Clear
Visibility: 10 miles , 16 km
2018/08/22 02:53 KMLB 220253Z 00000KT 10SM CLR 27/23 A3010 RMK AO2 SLP193 T02720228 50011
 
KGIF - Winter Haven, Florida, USA
Distance from station: W 35mi, 56km
Updated: 08/21/2018 10:53pm
Clear
Clear
 Wind from SE
Wind: SE 7 mph , 11 km/h
Temperature: 77°F , 25°C
Dew Point: 73°F , 23°C
Humidity: 89%
Barometer: 30.12 inHg , 1020 hPa
Clouds: Clear
Visibility: 10 miles , 16 km
2018/08/22 02:53 KGIF 220253Z AUTO 13006KT 10SM CLR 25/23 A3012 RMK AO2 SLP197 60000 T02500233 50006
KTIX - Titusville, Florida, USA
Distance from station: NE 35mi, 57km
Updated: 08/21/2018 8:45pm
NOT Current
Rain, Overcast
Rain, Overcast
 Wind from W
Wind: W 5 mph , 7 km/h
Temperature: 79°F , 26°C
Dew Point: 75°F , 24°C
Humidity: 89%
Barometer: 30.10 inHg , 1019.3 hPa
Summary: Rain
Clouds: Overcast
Visibility: 6 miles , 10 km
Cloud details: Partly cloudy 1100 ft
Mostly cloudy 4500 ft
Overcast 5000 ft
2018/08/22 00:45 KTIX 220045Z 26004KT 6SM RA SCT011 BKN045 OVC050 26/24 A3010 RMK LAST
 
KCOF - Patrick Afb/Coco, Florida, USA
Distance from station: ENE 36mi, 58km
Updated: 08/21/2018 10:56pm
Clear
Clear
 Wind from SE
Wind: SE 6 mph , 9 km/h
Temperature: 81°F , 27°C
Heat Index: 87°F , 31°C
Dew Point: 75°F , 24°C
Humidity: 84%
Barometer: 30.10 inHg , 1019.3 hPa
Clouds: Clear
Visibility: 10 miles , 16 km
2018/08/22 02:56 KCOF 220256Z AUTO 14005KT 10SM CLR 27/24 A3010 RMK AO2 SLP197 T02700244 50007 $
KBOW - Bartow Municipal, Florida, USA
Distance from station: WSW 38mi, 61km
Updated: 08/21/2018 11:15pm

 Wind from calm
Wind: Calm
Temperature: 75°F , 24°C
Barometer: 30.12 inHg , 1020 hPa
2018/08/22 03:15 KBOW 220315Z AUTO 00000KT 24/ A3012 RMK AO2
 
KXMR - Cape Canaveral, Florida, USA
Distance from station: NE 44mi, 72km
Updated: 08/21/2018 10:56pm
Clear
Clear
 Wind from calm
Wind: Calm
Temperature: 81°F , 27°C
Heat Index: 85°F , 29°C
Dew Point: 72°F , 22°C
Humidity: 74%
Barometer: 30.10 inHg , 1019.3 hPa
Clouds: Clear
Visibility: 10 miles , 16 km
2018/08/22 02:56 KXMR 220256Z AUTO 00000KT 10SM CLR 27/22 A3010 RMK AO2 SLP196 T02650219 50010 $
KTTS - Nasa Shuttle Fcl, Florida, USA
Distance from station: NE 45mi, 72km
Updated: 08/21/2018 10:56pm
Clear
Clear
 Wind from calm
Wind: Calm
Temperature: 77°F , 25°C
Dew Point: 72°F , 22°C
Humidity: 83%
Barometer: 30.10 inHg , 1019.3 hPa
Clouds: Clear
Visibility: 10 miles , 16 km
2018/08/22 02:56 KTTS 220256Z AUTO 00000KT 10SM CLR 25/22 A3010 RMK AO2 SLP197 T02520221 50006 $
 
KSFB - Sanford/Orlando, Florida, USA
Distance from station: N 45mi, 73km
Updated: 08/21/2018 10:53pm
Clear
Clear
 Wind from SSE
Wind: SSE 5 mph , 7 km/h
Temperature: 77°F , 25°C
Dew Point: 75°F , 24°C
Humidity: 94%
Barometer: 30.10 inHg , 1019.3 hPa
Clouds: Clear
Visibility: 10 miles , 16 km
2018/08/22 02:53 KSFB 220253Z 15004KT 10SM CLR 25/24 A3010 RMK AO2 RAE00 SLP191 P0000 60012 T02500239 58002
KLAL - Lakeland Regiona, Florida, USA
Distance from station: WSW 52mi, 84km
Updated: 08/21/2018 11:15pm
Clear
Clear
 Wind from calm
Wind: Calm
Temperature: 77°F , 25°C
Dew Point: 75°F , 24°C
Humidity: 94%
Barometer: 30.12 inHg , 1020 hPa
Clouds: Clear
Visibility: 10 miles , 16 km
2018/08/22 03:15 KLAL 220315Z AUTO 00000KT 10SM CLR 25/24 A3012 RMK AO2
 
KVRB - Vero Beach, Florida, USA
Distance from station: SE 57mi, 91km
Updated: 08/21/2018 10:53pm
Few Clouds
Few Clouds
 Wind from SSE
Wind: SSE 7 mph , 11 km/h
Temperature: 81°F , 27°C
Heat Index: 86°F , 30°C
Dew Point: 73°F , 23°C
Humidity: 79%
Barometer: 30.11 inHg , 1019.6 hPa
Clouds: Few Clouds
Visibility: 10 miles , 16 km
Cloud details: Few Clouds 8500 ft
2018/08/22 02:53 KVRB 220253Z AUTO 15006KT 10SM FEW085 27/23 A3011 RMK AO2 SLP196 T02720233 50014
KZPH - Zephyrhills, Florida, USA
Distance from station: W 60mi, 96km
Updated: 08/21/2018 11:15pm
Clear
Clear
 Wind from calm
Wind: Calm
Temperature: 77°F , 25°C
Dew Point: 73°F , 23°C
Humidity: 89%
Barometer: 30.11 inHg , 1019.6 hPa
Clouds: Clear
Visibility: 10 miles , 16 km
2018/08/22 03:15 KZPH 220315Z AUTO 00000KT 10SM CLR 25/23 A3011 RMK AO2 T02510234
 
KPCM - Plant City Muni, Florida, USA
Distance from station: W 61mi, 98km
Updated: 08/21/2018 11:15pm
Clear
Clear
 Wind from calm
Wind: Calm
Temperature: 79°F , 26°C
Dew Point: 77°F , 25°C
Humidity: 94%
Barometer: 30.13 inHg , 1020.3 hPa
Clouds: Clear
Visibility: 10 miles , 16 km
2018/08/22 03:15 KPCM 220315Z AUTO 00000KT 10SM CLR 26/25 A3013 RMK AO2
KLEE - Leesburg, Florida, USA
Distance from station: NW 62mi, 100km
Updated: 08/21/2018 10:53pm
Clear
Clear
 Wind from S
Wind: S 7 mph , 11 km/h
Temperature: 81°F , 27°C
Heat Index: 87°F , 31°C
Dew Point: 75°F , 24°C
Humidity: 84%
Barometer: 30.11 inHg , 1019.6 hPa
Clouds: Clear
Visibility: 10 miles , 16 km
2018/08/22 02:53 KLEE 220253Z AUTO 17006KT 10SM CLR 27/24 A3011 RMK AO2 SLP195 T02670239 58001
 
KOBE - Okeechobee Cty, Florida, USA
Distance from station: SSE 62mi, 100km
Updated: 08/21/2018 11:15pm
Clear
Clear
 Wind from calm
Wind: Calm
Temperature: 75°F , 24°C
Dew Point: 73°F , 23°C
Humidity: 94%
Barometer: 30.12 inHg , 1020 hPa
Clouds: Clear
Visibility: 10 miles , 16 km
2018/08/22 03:15 KOBE 220315Z AUTO 00000KT 10SM CLR 24/23 A3012 RMK AO2 LTG DSNT S
KFPR - Fort Pierce, Florida, USA
Distance from station: SE 65mi, 104km
Updated: 08/21/2018 9:53pm
NOT Current
Few Clouds
Few Clouds
 Wind from ESE
Wind: ESE 5 mph , 7 km/h
Temperature: 81°F , 27°C
Heat Index: 87°F , 31°C
Dew Point: 75°F , 24°C
Humidity: 84%
Barometer: 30.12 inHg , 1020 hPa
Clouds: Few Clouds
Visibility: 10 miles , 16 km
Cloud details: Few Clouds 9000 ft
2018/08/22 01:53 KFPR 220153Z AUTO 12004KT 10SM FEW090 27/24 A3012 RMK AO2 SLP199 T02670239
 
KDED - Deland, Florida, USA
Distance from station: N 66mi, 106km
Updated: 08/21/2018 11:15pm
Clear
Clear
 Wind from S
Wind: S 3 mph , 6 km/h
Temperature: 75°F , 24°C
Dew Point: 72°F , 22°C
Humidity: 89%
Barometer: 30.10 inHg , 1019.3 hPa
Clouds: Clear
Visibility: 10 miles , 16 km
2018/08/22 03:15 KDED 220315Z AUTO 19003KT 10SM CLR 24/22 A3010 RMK AO2
KEVB - New Smyrna Beach, Florida, USA
Distance from station: NNE 66mi, 106km
Updated: 08/21/2018 9:47pm
NOT Current
Few Clouds
Few Clouds
 Wind from calm
Wind: Calm
Temperature: 77°F , 25°C
Dew Point: 72°F , 22°C
Humidity: 83%
Barometer: 30.13 inHg , 1020.3 hPa
Clouds: Few Clouds
Visibility: 10 miles , 16 km
Cloud details: Few Clouds 4500 ft
2018/08/22 01:47 KEVB 220147Z 00000KT 10SM FEW045 25/22 A3013 RMK LAST